KLND

Hunt Field Airport

Lander, Wyoming, USA
METAR KLND 221953Z AUTO 36005KT 10SM CLR 16/M01 A3020 RMK AO2 SLP192 T01561006
Observed Flight Rules
Oct-22 @ 19:53 UTC (an hour ago) Visual Flight Rules
Wind Visibility Clouds
360° at 5 knots 10 miles
  • Clear skies
Temperatures Readings
Current 16°C / 61°F
Dewpoint -1°C / 30°F
Humidity 31%
Altimeter 30.2" Hg
Pressure 1019.2 hPa
Elevation 1694
METAR KLND 221953Z AUTO 36005KT 10SM CLR 16/M01 A3020 RMK AO2 SLP192 T01561006
Observed Flight Rules
Oct-22 @ 19:53 UTC
(an hour ago)
VFR
Wind Visibility
360° at 5 knots 10 miles
Clouds
  • Clear skies
Temperature Dewpoint
16°C / 61°F -1°C / 30°F
Humidity Altimeter Pressure
31% 30.2" Hg 1019.2 hPa